Latest Weather Observations for Low Isles

IDQ60801

Issued at 11:02 am EST Tuesday 20 October 2020 (issued every 10 minutes, with the page automatically refreshed every 10 minutes)

About weather observations | Map of weather stations | Latest weather observations for QLD | Other Formats
Station Details ID: 031037 Name: LOW ISLES LIGHTHOUSE Lat: -16.38 Lon: 145.56 Height: 2.9 m
Data from the previous 72 hours. | See also: Recent months at Low Isles
Date/Time
EST
Temp
°C
App
Temp
°C
Dew
Point
°C
Rel
Hum
%
Delta-T
°C
Wind Press
QNH
hPa
Press
MSL
hPa
Rain since
9am
mm
Dir  Spd
km/h
Gust
km/h
Spd
kts
Gust
kts
20/11:00am 28.3 31.3 20.8 63 5.0 SE 6 9 3 5 1013.3 1013.2 0.0
20/10:30am 27.5 30.3 20.8 67 4.4 S 7 9 4 5 1013.6 1013.5 0.0
20/10:00am 26.4 29.1 20.7 71 3.7 SSW 7 11 4 6 1013.7 1013.6 0.0
20/09:30am 25.7 28.1 20.0 71 3.7 WSW 7 9 4 5 1013.7 1013.6 0.0
20/09:00am 25.4 27.3 19.8 71 3.6 WSW 9 11 5 6 1013.7 1013.6 0.0
20/08:30am 24.8 26.5 20.1 75 3.0 WSW 11 13 6 7 1013.4 1013.3 0.0
20/08:00am 24.4 25.7 20.1 77 2.8 WSW 13 15 7 8 1013.0 1012.9 0.0
20/07:30am 23.8 24.6 19.1 75 3.0 WSW 13 15 7 8 1012.8 1012.7 0.0
20/07:00am 23.5 24.5 20.2 82 2.1 WSW 15 17 8 9 1012.4 1012.3 0.0
20/06:30am 23.4 24.6 20.0 81 2.2 WSW 13 17 7 9 1011.8 1011.7 0.0
20/06:00am 23.2 25.0 20.3 84 1.9 WSW 11 13 6 7 1011.5 1011.4 0.0
20/05:30am 23.1 25.2 20.2 84 1.9 WSW 9 13 5 7 1011.3 1011.2 0.0
20/05:00am 23.3 26.1 20.8 86 1.6 WSW 7 9 4 5 1011.0 1010.9 0.0
20/04:30am 23.6 26.3 21.3 87 1.5 WSW 9 11 5 6 1010.6 1010.5 0.0
20/04:00am 23.8 26.3 21.7 88 1.4 SW 11 13 6 7 1010.5 1010.4 0.0
20/03:30am 23.8 26.2 21.5 87 1.5 WSW 11 13 6 7 1010.3 1010.2 0.0
20/03:00am 24.1 26.6 21.8 87 1.5 WSW 11 15 6 8 1010.4 1010.3 0.0
20/02:30am 24.1 25.7 20.8 82 2.2 WSW 13 15 7 8 1010.5 1010.4 0.0
20/02:00am 24.1 25.7 20.8 82 2.2 WSW 13 17 7 9 1010.8 1010.7 0.0
20/01:30am 24.3 26.5 21.2 83 2.0 WSW 11 15 6 8 1010.9 1010.8 0.0
20/01:00am 23.7 26.3 20.0 80 2.4 NNE 6 9 3 5 1011.3 1011.2 0.0
20/12:30am 24.1 26.8 20.6 81 2.3 NE 7 11 4 6 1011.6 1011.5 0.0
20/12:00am 23.9 27.9 20.6 82 2.2 CALM 0 6 0 3 1012.0 1011.9 0.0
 
Date/Time
EST
Temp
°C
App
Temp
°C
Dew
Point
°C
Rel
Hum
%
Delta-T
°C
Wind Press
QNH
hPa
Press
MSL
hPa
Rain since
9am
mm
Dir  Spd
km/h
Gust
km/h
Spd
kts
Gust
kts
19/11:30pm 23.9 26.6 20.6 82 2.2 ENE 7 9 4 5 1012.3 1012.2 0.0
19/11:00pm 23.9 26.1 20.4 81 2.3 NNE 9 9 5 5 1012.3 1012.2 0.0
19/10:30pm 24.0 26.1 20.1 79 2.5 NNE 9 11 5 6 1012.5 1012.4 0.0
19/10:00pm 24.3 26.5 20.4 79 2.5 NNE 9 13 5 7 1012.5 1012.4 0.0
19/09:30pm 24.5 26.6 20.2 77 2.8 NE 9 11 5 6 1012.5 1012.4 0.0
19/09:00pm 24.9 26.3 20.4 76 2.9 NE 13 15 7 8 1012.3 1012.2 0.0
19/08:30pm 25.3 27.3 20.8 76 3.0 NE 11 15 6 8 1011.9 1011.8 0.0
19/08:00pm 25.3 28.2 21.0 77 2.8 E 7 11 4 6 1011.6 1011.5 0.0
19/07:30pm 25.2 27.9 20.7 76 2.9 E 7 9 4 5 1011.3 1011.2 0.0
19/07:00pm 25.2 27.3 20.2 74 3.3 ENE 9 11 5 6 1011.1 1011.0 0.0
19/06:30pm 25.6 27.3 20.2 72 3.5 ENE 11 15 6 8 1010.8 1010.7 0.0
19/06:00pm 26.2 27.6 20.3 70 3.9 ENE 13 17 7 9 1010.5 1010.4 0.0
19/05:30pm 26.8 28.0 20.6 69 4.1 ENE 15 20 8 11 1010.4 1010.3 0.0
19/05:00pm 27.4 28.6 20.7 67 4.4 ENE 15 20 8 11 1010.2 1010.1 0.0
19/04:30pm 28.1 29.2 20.4 63 5.1 ENE 15 19 8 10 1010.1 1010.0 0.0
19/04:00pm 28.7 29.4 20.4 60 5.5 ENE 17 20 9 11 1010.1 1010.0 0.0
19/03:30pm 29.7 30.2 20.0 56 6.4 ENE 17 22 9 12 1010.2 1010.1 0.0
19/03:00pm 28.9 29.3 19.8 58 6.0 ENE 17 24 9 13 1010.2 1010.1 0.0
19/02:30pm 29.7 30.2 20.0 56 6.4 ENE 17 22 9 12 1010.3 1010.2 0.0
19/02:00pm 29.6 30.6 20.2 57 6.2 E 15 19 8 10 1010.5 1010.4 0.0
19/01:30pm 29.7 30.0 19.7 55 6.5 E 17 20 9 11 1010.9 1010.8 0.0
19/01:00pm 29.6 30.0 19.0 53 6.9 E 15 22 8 12 1011.5 1011.4 0.0
19/12:30pm 29.6 29.9 18.7 52 7.0 ENE 15 19 8 10 1012.1 1012.0 0.0
19/12:00pm 29.4 30.7 19.4 55 6.5 E 11 17 6 9 1012.6 1012.5 0.0
19/11:30am 29.1 31.1 20.0 58 6.0 ESE 9 13 5 7 1013.0 1012.9 0.0
19/11:00am 28.1 29.3 19.1 58 5.8 SE 11 15 6 8 1013.1 1013.0 0.0
19/10:30am 27.4 28.7 19.2 61 5.3 SE 11 13 6 7 1013.3 1013.2 0.0
19/10:00am 27.1 29.0 19.7 64 4.8 SSE 9 11 5 6 1013.6 1013.5 0.0
19/09:30am 26.9 29.1 20.5 68 4.2 S 9 11 5 6 1013.7 1013.6 0.0
19/09:00am 26.0 27.8 20.3 71 3.7 S 11 13 6 7 1013.7 1013.6 0.0
19/08:30am 25.2 26.4 20.0 73 3.4 SSE 13 17 7 9 1013.7 1013.6 0.0
19/08:00am 25.2 27.1 20.5 75 3.1 SSE 11 13 6 7 1013.5 1013.4 0.0
19/07:30am 24.2 25.4 20.7 81 2.3 SSW 15 19 8 10 1013.0 1012.9 0.0
19/07:00am 23.9 24.6 20.4 81 2.3 SSW 17 20 9 11 1012.5 1012.4 0.0
19/06:30am 23.7 24.5 20.6 83 2.0 SW 17 20 9 11 1012.3 1012.2 0.0
19/06:00am 23.3 23.7 19.9 81 2.2 SW 17 17 9 9 1012.1 1012.0 0.0
19/05:30am 23.3 24.3 20.2 83 2.0 WSW 15 17 8 9 1012.0 1011.9 0.0
19/05:00am 23.3 24.4 20.4 84 1.9 WSW 15 17 8 9 1011.6 1011.5 0.0
19/04:30am 23.3 24.3 20.2 83 2.0 SW 15 17 8 9 1011.4 1011.3 0.0
19/04:00am 23.5 24.7 20.6 84 1.9 SW 15 17 8 9 1011.3 1011.2 0.0
19/03:30am 23.7 25.4 21.0 85 1.8 WSW 13 15 7 8 1011.2 1011.1 0.0
19/03:00am 23.2 26.8 20.5 85 1.8 SSE 2 9 1 5 1011.4 1011.3 0.0
19/02:30am 22.8 25.1 19.4 81 2.2 ENE 6 7 3 4 1011.5 1011.4 0.0
19/02:00am 22.9 24.7 19.5 81 2.2 E 9 11 5 6 1011.9 1011.8 0.0
19/01:30am 23.0 25.1 19.4 80 2.3 ENE 7 9 4 5 1012.1 1012.0 0.0
19/01:00am 23.0 24.6 19.2 79 2.4 NE 9 11 5 6 1012.5 1012.4 0.0
19/12:30am 23.2 25.5 19.8 81 2.2 E 7 11 4 6 1012.8 1012.7 0.0
19/12:00am 23.4 25.6 19.5 79 2.5 E 7 9 4 5 1013.0 1012.9 0.0
 
Date/Time
EST
Temp
°C
App
Temp
°C
Dew
Point
°C
Rel
Hum
%
Delta-T
°C
Wind Press
QNH
hPa
Press
MSL
hPa
Rain since
9am
mm
Dir  Spd
km/h
Gust
km/h
Spd
kts
Gust
kts
18/11:30pm 23.6 25.3 19.3 77 2.7 E 9 11 5 6 1013.1 1013.0 0.0
18/11:00pm 23.9 25.2 19.2 75 3.0 E 11 15 6 8 1013.5 1013.4 0.0
18/10:30pm 24.4 25.1 19.7 75 3.0 E 15 17 8 9 1013.6 1013.5 0.0
18/10:00pm 24.5 25.6 19.6 74 3.2 E 13 15 7 8 1013.7 1013.6 0.0
18/09:30pm 24.8 25.9 19.6 73 3.3 E 13 17 7 9 1013.6 1013.5 0.0
18/09:00pm 24.8 25.9 19.6 73 3.3 E 13 19 7 10 1013.5 1013.4 0.0
18/08:30pm 25.0 25.9 20.0 74 3.2 E 15 20 8 11 1013.4 1013.3 0.0
18/08:00pm 25.0 25.4 19.8 73 3.4 E 17 20 9 11 1013.1 1013.0 0.0
18/07:30pm 24.9 25.6 19.7 73 3.4 ESE 15 19 8 10 1012.8 1012.7 0.0
18/07:00pm 25.1 25.9 19.9 73 3.4 E 15 17 8 9 1012.5 1012.4 0.0
18/06:30pm 25.3 26.1 19.9 72 3.5 ESE 15 17 8 9 1012.3 1012.2 0.0
18/06:00pm 25.7 26.2 19.3 67 4.1 E 15 17 8 9 1012.2 1012.1 0.0
18/05:30pm 26.7 27.6 20.1 67 4.3 ESE 15 19 8 10 1012.1 1012.0 0.0
18/05:00pm 26.8 27.0 19.4 64 4.8 ESE 17 20 9 11 1011.8 1011.7 0.0
18/04:30pm 27.5 28.2 19.6 62 5.1 E 15 20 8 11 1011.7 1011.6 0.0
18/04:00pm 28.1 28.3 20.1 62 5.2 E 19 24 10 13 1011.7 1011.6 0.0
18/03:30pm 28.7 28.6 19.6 58 5.9 E 19 24 10 13 1011.9 1011.8 0.0
18/03:00pm 29.1 28.9 19.4 55 6.3 E 19 24 10 13 1012.0 1011.9 0.0
18/02:30pm 29.2 29.8 19.5 56 6.3 E 15 20 8 11 1012.3 1012.2 0.0
18/02:00pm 29.6 29.8 20.2 57 6.2 E 19 24 10 13 1012.5 1012.4 0.0
18/01:30pm 29.3 29.5 20.2 58 6.0 ESE 19 24 10 13 1012.8 1012.7 0.0
18/01:00pm 29.5 29.6 19.2 54 6.7 E 17 24 9 13 1013.2 1013.1 0.0
18/12:30pm 29.1 28.8 19.1 54 6.5 ESE 19 24 10 13 1013.5 1013.4 0.0
18/12:00pm 29.1 29.1 19.7 57 6.1 E 19 24 10 13 1014.0 1013.9 0.0
18/11:30am 27.3 27.5 20.6 67 4.4 SE 20 24 11 13 1014.4 1014.3 0.0
18/11:00am 26.9 27.1 21.4 72 3.7 SE 22 24 12 13 1014.6 1014.5 0.0
18/10:30am 26.8 26.5 20.4 68 4.2 SE 22 26 12 14 1014.8 1014.7 0.0
18/10:00am 25.1 24.3 20.1 74 3.2 SE 24 28 13 15 1015.0 1014.9 0.0
18/09:30am 24.5 24.8 20.8 80 2.4 SE 20 24 11 13 1015.1 1015.0 0.0
18/09:00am 24.4 23.7 20.3 78 2.7 SE 24 30 13 16 1015.1 1015.0 0.0
18/08:30am 25.3 24.9 21.0 77 2.8 SE 24 28 13 15 1014.9 1014.8 0.0
18/08:00am 24.7 23.4 20.6 78 2.7 SE 28 32 15 17 1014.7 1014.6 0.0
18/07:30am 24.4 23.4 20.5 79 2.5 ESE 26 30 14 16 1014.3 1014.2 0.0
18/07:00am 24.2 23.4 20.1 78 2.7 ESE 24 28 13 15 1013.8 1013.7 0.0
18/06:30am 24.1 22.9 20.0 78 2.6 SE 26 30 14 16 1013.6 1013.5 0.0
18/06:00am 23.7 22.0 19.8 79 2.5 SE 28 32 15 17 1013.5 1013.4 0.0
18/05:30am 23.6 21.5 19.7 79 2.5 SE 30 33 16 18 1013.2 1013.1 0.0
18/05:00am 23.6 22.7 19.9 80 2.4 SE 24 28 13 15 1012.7 1012.6 0.0
18/04:30am 23.3 21.8 19.5 79 2.4 SSE 26 32 14 17 1012.4 1012.3 0.0
18/04:00am 23.6 22.3 19.9 80 2.4 SE 26 30 14 16 1012.3 1012.2 0.0
18/03:30am 23.4 21.8 20.0 81 2.2 SSE 28 33 15 18 1012.3 1012.2 0.0
18/03:00am 23.4 21.9 20.2 82 2.1 SSE 28 35 15 19 1012.5 1012.4 0.0
18/02:30am 23.3 21.6 19.7 80 2.3 SE 28 32 15 17 1012.6 1012.5 0.0
18/02:00am 23.4 21.8 20.0 81 2.2 SE 28 33 15 18 1012.9 1012.8 0.0
18/01:30am 23.7 23.5 20.6 83 2.0 SE 22 26 12 14 1013.0 1012.9 0.0
18/01:00am 23.8 22.8 20.5 82 2.1 SE 26 32 14 17 1013.4 1013.3 0.0
18/12:30am 24.0 22.5 20.3 80 2.4 SE 28 33 15 18 1013.9 1013.8 0.0
18/12:00am 24.4 23.8 20.5 79 2.5 SE 24 28 13 15 1014.1 1014.0 0.0
 
Date/Time
EST
Temp
°C
App
Temp
°C
Dew
Point
°C
Rel
Hum
%
Delta-T
°C
Wind Press
QNH
hPa
Press
MSL
hPa
Rain since
9am
mm
Dir  Spd
km/h
Gust
km/h
Spd
kts
Gust
kts
17/11:30pm 24.2 22.8 20.5 80 2.4 SE 28 33 15 18 1014.3 1014.2 0.0
17/11:00pm 24.3 22.9 20.4 79 2.5 SE 28 32 15 17 1014.4 1014.3 0.0
17/10:30pm 24.5 23.2 21.4 83 2.0 ESE 30 35 16 19 1014.4 1014.3 0.0
17/10:00pm 24.7 24.1 20.4 77 2.8 ESE 24 32 13 17 1014.2 1014.1 0.0
17/09:30pm 24.7 24.0 20.2 76 2.9 ESE 24 30 13 16 1014.1 1014.0 0.0
17/09:00pm 24.7 24.0 20.2 76 2.9 ESE 24 32 13 17 1013.9 1013.8 0.0
17/08:30pm 24.6 23.7 19.9 75 3.0 ESE 24 28 13 15 1013.7 1013.6 0.0
17/08:00pm 24.7 23.9 20.0 75 3.0 ESE 24 32 13 17 1013.5 1013.4 0.0
17/07:30pm 24.8 24.1 20.3 76 2.9 ESE 24 32 13 17 1013.3 1013.2 0.0
17/07:00pm 24.9 23.6 19.9 74 3.2 ESE 26 33 14 18 1013.2 1013.1 0.0
17/06:30pm 24.9 23.9 19.7 73 3.4 ESE 24 28 13 15 1012.8 1012.7 0.0
17/06:00pm 24.8 23.8 19.6 73 3.3 ESE 24 32 13 17 1012.5 1012.4 0.0
17/05:30pm 25.5 24.0 19.4 69 3.9 ESE 26 32 14 17 1012.3 1012.2 0.0
17/05:00pm 26.1 25.0 19.5 67 4.3 ESE 24 32 13 17 1012.0 1011.9 0.0
17/04:30pm 26.6 24.9 19.0 63 4.9 ESE 26 33 14 18 1011.6 1011.5 0.0
17/04:00pm 27.4 25.8 19.2 61 5.3 ESE 26 32 14 17 1011.5 1011.4 0.0
17/03:30pm 28.3 27.1 19.2 57 5.9 E 24 32 13 17 1011.6 1011.5 0.0
17/03:00pm 28.1 26.5 19.3 58 5.7 ESE 26 33 14 18 1011.7 1011.6 0.0
17/02:30pm 28.4 27.2 19.3 57 5.9 E 24 33 13 18 1011.8 1011.7 0.0
17/02:00pm 28.8 27.3 19.4 56 6.1 ESE 26 35 14 19 1012.1 1012.0 0.0
17/01:30pm 28.4 26.5 18.5 55 6.3 ESE 26 35 14 19 1012.6 1012.5 0.0
17/01:00pm 28.2 26.5 18.9 57 6.0 ESE 26 33 14 18 1013.1 1013.0 0.0
17/12:30pm 29.0 27.1 19.3 55 6.3 ESE 28 33 15 18 1013.6 1013.5 0.0
17/12:00pm 28.3 26.1 18.7 56 6.2 ESE 28 33 15 18 1014.0 1013.9 0.0
17/11:30am 28.4 26.6 18.8 56 6.2 ESE 26 30 14 16 1014.4 1014.3 0.0

Other formats

Comma delimited format used in spreadsheet applications
http://www.bom.gov.au/fwo/IDQ60801/IDQ60801.94285.axf

JavaScript Object Notation format (JSON) in row-major order
http://www.bom.gov.au/fwo/IDQ60801/IDQ60801.94285.json

Data quality

Most of these data are generated automatically and are frequently updated. Quality checks on data are not normally performed. It is possible for incorrect values to appear. Refer to information at About Latest Weather Observations and please check the disclaimer before using these data.